A- A+ FrançaisEnglishEspañol中国

Services sur Internet Soldes sur Internet Des idées de cadeaux Météo Météo aéro

La météo à : Autours de vous Tarbes-Lourdes-PyrénéesMontargis-VimoryLe-Mans-Arnage Montpellier-Frejorgues

manche à air

La météo aéronautique pour les pilotes, la préparation du vol avec les METAR (METeorological Aerodrome Report, message d'observation des conditions météorologiques pour l'aviation) et Les TAF (Terminal Aerodrome Forecast : message de prévision à court terme des conditions météorologiques pour l'aviation). Et les autres ressources comme les VAC (Visual Approch Chart) et les NOTAM (Notice To Airman) pour préprer les vols.

Aéroport Liege (Belgique) / OACI EBLG/ IATA LGG

L'altitude de l'aéroport Liege est de 201 m = 659 ft. Il est situé à proximité de Liège (Belgique). La météo générale à 5 jours est disponible pour Awans situé à 3.7 km.

METAR de l'aéroport Liege - EBLG

EBLG 110350Z 19015KT 9999 SCT010 SCT013 BKN015 05/03 Q1011 NOSIG

Décodage du METAR de l'aéroport Liege (Belgique)

METAR émis par EBLG le mercredi 11 décembre 2019 à 03:50 heure TU, il y a 9 minutes.

La visibilité est de supérieure à 10 km = supérieure à 6.2 sm.

La température est de 5°C = 41 °F et le point rosée est de 3°C = 37 °F . Ce qui correspond à 87% d'humidité relative.

Le QNH est de 1011 hPa = 29.85 inHg

Vent de 15 kt = 28 km/h, orienté à 190°.

Nuages : Nuages épars à 1000 ft = 300 mètres. Nuages épars à 1300 ft = 400 mètres. Couverture nuageuse fragmentée à 1500 ft = 460 mètres.

Aucun changement significatif dans les deux heures à venir

TAF de l'aéroport Liege - EBLG

EBLG 102300Z 1100/1206 19020G30KT 9999 SCT020 BKN030

EBLG 102300Z 1100/1206 19020G30KT 9999 nuages épars à 020 couverture nuageuse fragmentée à 030

Aéroport à proximité de Liege

Météo générale à 5 jours à Awans (3.7 km)Aéroport Sint Truiden Mil (24 km)Aéroport Theux Verviers (31 km)Aéroport Zutendaal Mil (36 km)Aéroport Spa La Sauveniere (37 km)Aéroport Hasselt (37 km)Aéroport Goetsenhoven Mil (38 km)

VAC de l'aéroport Liege - EBLG

La carte d'approche à vue (VAC Visual Approah Chart) est fournie sans aucune garantie de son actualité. Le pilote est le seul responsable de la vérification de sa validité avant de l'utiliser opérationnellement pour préparer un vol ou l'utiliser lors de sa navigation.

VAC de EBLG

Vue aérienne de l'aéroport Liege

NOTAM de l'aéroport Liege

Les NOTAM sont fournis sans aucune garantie de leur actualité. Le pilote est le seul responsable de la vérification de sa validité avant de l'utiliser opérationnellement pour préparer un vol ou l'utiliser lors de sa navigation.

Pas de NOTAM

Sources des données